createdAt,value
2023-04-06T00:00:52.194Z,13.60
2023-04-06T00:03:19.170Z,8.93
2023-04-06T00:05:46.053Z,6.07
2023-04-06T00:08:12.719Z,8.67
2023-04-06T00:10:39.490Z,5.93
2023-04-06T00:13:07.125Z,7.70
2023-04-06T00:15:34.223Z,9.30
2023-04-06T00:18:01.001Z,12.70
2023-04-06T00:20:27.734Z,5.73
2023-04-06T00:22:55.105Z,6.27
2023-04-06T00:25:21.765Z,5.70
2023-04-06T00:27:48.486Z,5.80
2023-04-06T00:30:15.569Z,5.50
2023-04-06T00:32:42.594Z,7.67
2023-04-06T00:35:09.813Z,6.93
2023-04-06T00:37:36.533Z,10.50
2023-04-06T00:40:03.762Z,5.53
2023-04-06T00:42:30.666Z,7.23
2023-04-06T00:45:00.764Z,6.27
2023-04-06T00:47:27.672Z,10.03
2023-04-06T00:49:55.487Z,5.47
2023-04-06T00:52:22.507Z,9.33
2023-04-06T00:54:50.878Z,5.37
2023-04-06T00:57:20.436Z,6.23
2023-04-06T00:59:54.273Z,10.10
2023-04-06T01:02:21.384Z,8.27
2023-04-06T01:04:51.008Z,10.80
2023-04-06T01:07:27.118Z,7.60
2023-04-06T01:10:05.813Z,10.87
2023-04-06T01:12:34.140Z,7.30
2023-04-06T01:15:04.054Z,9.07
2023-04-06T01:17:33.316Z,8.70
2023-04-06T01:20:08.112Z,8.20
2023-04-06T01:22:35.709Z,7.87
2023-04-06T01:25:04.122Z,7.80
2023-04-06T01:27:36.913Z,8.40
2023-04-06T01:30:03.970Z,11.93
2023-04-06T01:32:47.877Z,9.20
2023-04-06T01:35:19.967Z,9.23
2023-04-06T01:38:03.730Z,10.10
2023-04-06T01:40:33.785Z,8.53
2023-04-06T01:43:00.593Z,9.60
2023-04-06T01:45:34.122Z,8.93
2023-04-06T01:48:10.643Z,8.20
2023-04-06T01:50:37.389Z,12.93
2023-04-06T01:53:04.192Z,9.10
2023-04-06T01:55:32.034Z,8.43
2023-04-06T01:58:30.959Z,9.10
2023-04-06T02:00:58.392Z,7.50
2023-04-06T02:03:29.159Z,10.70
2023-04-06T02:06:04.969Z,16.53
2023-04-06T02:08:36.677Z,7.90
2023-04-06T02:11:03.605Z,9.03
2023-04-06T02:13:34.999Z,8.60
2023-04-06T02:16:03.530Z,7.60
2023-04-06T02:18:33.347Z,9.37
2023-04-06T02:21:00.034Z,7.90
2023-04-06T02:23:27.161Z,8.67
2023-04-06T02:25:53.867Z,11.90
2023-04-06T02:28:20.619Z,8.60
2023-04-06T02:30:47.655Z,9.47
2023-04-06T02:33:14.493Z,7.40
2023-04-06T02:35:45.954Z,7.20
2023-04-06T02:38:12.938Z,7.93
2023-04-06T02:40:39.590Z,9.37
2023-04-06T02:43:18.094Z,7.63
2023-04-06T02:45:45.984Z,8.90
2023-04-06T02:48:14.091Z,7.73
2023-04-06T02:50:40.864Z,7.33
2023-04-06T02:53:08.786Z,9.30
2023-04-06T02:55:37.590Z,6.90
2023-04-06T02:58:04.365Z,7.67
2023-04-06T03:00:38.939Z,7.97
2023-04-06T03:03:05.794Z,7.50
2023-04-06T03:05:32.527Z,7.67
2023-04-06T03:07:59.293Z,7.50
2023-04-06T03:10:36.044Z,9.97
2023-04-06T03:13:02.764Z,7.17
2023-04-06T03:15:55.683Z,6.93
2023-04-06T03:18:24.628Z,8.13
2023-04-06T03:20:54.724Z,10.63
2023-04-06T03:23:23.678Z,7.93
2023-04-06T03:25:55.904Z,5.80
2023-04-06T03:28:22.815Z,10.93
2023-04-06T03:30:53.859Z,6.77
2023-04-06T03:33:36.837Z,6.23
2023-04-06T03:36:03.834Z,6.73
2023-04-06T03:38:33.070Z,7.23
2023-04-06T03:41:00.386Z,7.80
2023-04-06T03:43:28.105Z,8.80
2023-04-06T03:45:55.232Z,9.73
2023-04-06T03:48:22.021Z,9.77
2023-04-06T03:50:48.688Z,12.53
2023-04-06T03:53:15.554Z,8.90
2023-04-06T03:55:42.279Z,7.63
2023-04-06T03:58:09.008Z,7.47
2023-04-06T04:00:35.879Z,7.00
2023-04-06T04:03:03.458Z,7.37
2023-04-06T04:05:30.392Z,10.13
2023-04-06T04:07:57.113Z,10.70
2023-04-06T04:10:26.845Z,11.90
2023-04-06T04:12:53.571Z,9.93
2023-04-06T04:15:20.523Z,14.83
2023-04-06T04:17:50.353Z,11.53
2023-04-06T04:20:17.710Z,10.13
2023-04-06T04:22:44.433Z,12.40
2023-04-06T04:25:11.565Z,11.03
2023-04-06T04:27:44.073Z,8.90
2023-04-06T04:30:11.135Z,11.00
2023-04-06T04:32:37.903Z,10.70
2023-04-06T04:35:07.347Z,11.57
2023-04-06T04:37:37.475Z,9.47
2023-04-06T04:40:05.092Z,14.27
2023-04-06T04:42:40.631Z,12.17
2023-04-06T04:45:12.509Z,16.60
2023-04-06T04:47:40.313Z,8.83
2023-04-06T04:50:08.445Z,10.60
2023-04-06T04:52:39.071Z,13.40
2023-04-06T04:55:19.321Z,11.70
2023-04-06T04:57:48.934Z,11.80
2023-04-06T05:00:17.590Z,8.57
2023-04-06T05:02:45.494Z,7.50
2023-04-06T05:05:19.333Z,8.30
2023-04-06T05:07:46.621Z,9.63
2023-04-06T05:10:23.434Z,7.30
2023-04-06T05:12:55.054Z,6.60
2023-04-06T05:15:21.807Z,7.20
2023-04-06T05:17:52.534Z,13.23
2023-04-06T05:20:24.438Z,8.17
2023-04-06T05:22:52.033Z,10.40
2023-04-06T05:25:18.751Z,12.80
2023-04-06T05:27:48.314Z,13.37
2023-04-06T05:30:31.240Z,14.17
2023-04-06T05:32:58.638Z,13.60
2023-04-06T05:35:31.797Z,17.13
2023-04-06T05:38:03.459Z,14.10
2023-04-06T05:40:30.615Z,15.70
2023-04-06T05:42:57.400Z,19.40
2023-04-06T05:45:24.201Z,16.60
2023-04-06T05:47:55.038Z,17.17
2023-04-06T05:50:29.049Z,14.90
2023-04-06T05:52:56.466Z,16.23
2023-04-06T05:55:26.501Z,12.83
2023-04-06T05:58:05.210Z,16.37
2023-04-06T06:00:32.095Z,13.13
2023-04-06T06:03:07.297Z,13.83
2023-04-06T06:05:35.933Z,9.53
2023-04-06T06:08:11.280Z,8.07
2023-04-06T06:10:39.531Z,12.70
2023-04-06T06:13:08.382Z,14.43
2023-04-06T06:15:35.133Z,9.63
2023-04-06T06:18:02.709Z,9.60
2023-04-06T06:20:30.492Z,9.03
2023-04-06T06:23:00.378Z,8.07
2023-04-06T06:25:27.210Z,7.57
2023-04-06T06:27:54.090Z,8.87
2023-04-06T06:30:23.101Z,6.70
2023-04-06T06:32:51.577Z,7.50
2023-04-06T06:35:18.697Z,7.60
2023-04-06T06:37:46.603Z,9.27
2023-04-06T06:40:18.863Z,8.00
2023-04-06T06:42:47.608Z,7.50
2023-04-06T06:45:26.426Z,6.93
2023-04-06T06:47:55.584Z,6.47
2023-04-06T06:50:22.573Z,10.50
2023-04-06T06:52:49.405Z,7.40
2023-04-06T06:55:16.452Z,5.77
2023-04-06T06:57:43.551Z,6.33
2023-04-06T07:00:13.519Z,7.90
2023-04-06T07:02:41.294Z,8.53
2023-04-06T07:05:23.833Z,6.70
2023-04-06T07:07:55.121Z,6.47
2023-04-06T07:10:21.956Z,6.60
2023-04-06T07:12:49.040Z,6.93
2023-04-06T07:15:15.922Z,6.43
2023-04-06T07:17:46.273Z,6.57
2023-04-06T07:20:13.924Z,7.20
2023-04-06T07:22:41.639Z,6.03
2023-04-06T07:25:08.823Z,8.83
2023-04-06T07:27:35.620Z,6.60
2023-04-06T07:30:02.799Z,4.87
2023-04-06T07:32:29.652Z,5.97
2023-04-06T07:34:57.489Z,7.03
2023-04-06T07:37:24.394Z,9.90
2023-04-06T07:39:53.777Z,13.10
2023-04-06T07:42:20.629Z,5.40
2023-04-06T07:44:47.344Z,12.70
2023-04-06T07:47:14.078Z,8.00
2023-04-06T07:49:41.064Z,12.13
2023-04-06T07:52:07.884Z,9.93
2023-04-06T07:54:34.660Z,6.57
2023-04-06T07:57:01.368Z,6.40
2023-04-06T07:59:28.115Z,7.37
2023-04-06T08:01:54.893Z,5.60
2023-04-06T08:04:21.753Z,7.97
2023-04-06T08:06:48.457Z,11.53
2023-04-06T08:09:15.169Z,8.07
2023-04-06T08:11:41.873Z,6.17
2023-04-06T08:14:09.052Z,6.00
2023-04-06T08:16:36.051Z,7.90
2023-04-06T08:19:02.767Z,7.13
2023-04-06T08:21:29.482Z,10.10
2023-04-06T08:23:56.420Z,7.20
2023-04-06T08:26:23.093Z,5.23
2023-04-06T08:28:49.760Z,7.80
2023-04-06T08:31:16.525Z,5.60
2023-04-06T08:33:43.299Z,8.17
2023-04-06T08:36:15.466Z,10.07
2023-04-06T08:38:43.874Z,9.63
2023-04-06T08:41:11.901Z,5.80
2023-04-06T08:43:58.866Z,9.07
2023-04-06T08:46:32.356Z,5.03
2023-04-06T08:49:03.650Z,5.37
2023-04-06T08:51:31.451Z,8.40
2023-04-06T08:54:00.153Z,6.90
2023-04-06T08:56:29.141Z,9.80
2023-04-06T08:58:57.067Z,6.83
2023-04-06T09:01:28.779Z,6.43
2023-04-06T09:04:00.170Z,9.33
2023-04-06T09:06:31.874Z,7.50
2023-04-06T09:08:59.117Z,5.80
2023-04-06T09:11:26.142Z,7.80
2023-04-06T09:13:56.872Z,9.07
2023-04-06T09:16:24.330Z,5.67
2023-04-06T09:18:51.533Z,6.77
2023-04-06T09:21:25.349Z,9.20
2023-04-06T09:24:03.337Z,5.83
2023-04-06T09:26:30.524Z,8.47
2023-04-06T09:29:02.339Z,6.13
2023-04-06T09:31:31.339Z,6.53
2023-04-06T09:33:58.563Z,8.57
2023-04-06T09:36:33.128Z,6.03
2023-04-06T09:39:01.845Z,8.70
2023-04-06T09:41:29.769Z,9.93
2023-04-06T09:44:07.857Z,7.17
2023-04-06T09:46:50.619Z,6.80
2023-04-06T09:49:25.429Z,6.90
2023-04-06T09:51:58.390Z,6.40
2023-04-06T09:54:30.119Z,7.50
2023-04-06T09:57:19.328Z,7.77
2023-04-06T09:59:59.077Z,7.00
2023-04-06T10:02:25.911Z,6.30
2023-04-06T10:05:39.316Z,6.80
2023-04-06T10:08:09.809Z,6.43
2023-04-06T10:10:36.790Z,10.37
2023-04-06T10:13:05.049Z,8.10
2023-04-06T10:15:32.744Z,9.23
2023-04-06T10:18:00.506Z,6.00
2023-04-06T10:20:46.007Z,5.97
2023-04-06T10:23:17.559Z,7.33
2023-04-06T10:25:58.200Z,6.13
2023-04-06T10:28:26.242Z,6.07
2023-04-06T10:31:01.070Z,9.87
2023-04-06T10:33:28.973Z,6.60
2023-04-06T10:35:58.723Z,6.70
2023-04-06T10:38:38.907Z,8.73
2023-04-06T10:41:09.757Z,7.43
2023-04-06T10:43:38.290Z,6.00
2023-04-06T10:46:06.740Z,6.30
2023-04-06T10:48:47.694Z,6.07
2023-04-06T10:51:16.103Z,7.10
2023-04-06T10:53:45.335Z,5.90
2023-04-06T10:56:13.908Z,5.37
2023-04-06T10:58:51.400Z,5.60
2023-04-06T11:01:22.880Z,7.50
2023-04-06T11:03:53.243Z,5.53
2023-04-06T11:06:24.513Z,6.60
2023-04-06T11:08:52.184Z,5.60
2023-04-06T11:11:21.175Z,8.73
2023-04-06T11:14:01.981Z,5.40
2023-04-06T11:16:33.250Z,5.77
2023-04-06T11:19:10.560Z,6.77
2023-04-06T11:21:44.370Z,8.13
2023-04-06T11:24:12.422Z,5.37
2023-04-06T11:26:49.712Z,7.33
2023-04-06T11:29:19.094Z,8.03
2023-04-06T11:31:48.537Z,6.03
2023-04-06T11:34:23.140Z,6.87
2023-04-06T11:36:55.282Z,4.77
2023-04-06T11:39:26.823Z,6.40
2023-04-06T11:41:55.475Z,5.57
2023-04-06T11:44:50.694Z,6.10
2023-04-06T11:47:17.487Z,7.70
2023-04-06T11:49:48.730Z,8.73
2023-04-06T11:52:25.303Z,13.30
2023-04-06T11:54:57.891Z,7.43
2023-04-06T11:57:28.946Z,9.30
2023-04-06T11:59:56.418Z,8.57
2023-04-06T12:02:23.324Z,7.40
2023-04-06T12:04:50.449Z,8.40
2023-04-06T12:07:17.286Z,7.20
2023-04-06T12:09:44.302Z,8.83
2023-04-06T12:12:11.139Z,7.60
2023-04-06T12:14:37.969Z,6.70
2023-04-06T12:17:04.832Z,6.30
2023-04-06T12:19:32.554Z,9.97
2023-04-06T12:21:59.671Z,6.90
2023-04-06T12:24:26.417Z,7.40
2023-04-06T12:27:02.678Z,6.60
2023-04-06T12:29:33.785Z,5.77
2023-04-06T12:32:02.485Z,6.27
2023-04-06T12:34:29.430Z,5.97
2023-04-06T12:36:57.107Z,5.20
2023-04-06T12:39:24.131Z,5.13
2023-04-06T12:41:50.959Z,6.13
2023-04-06T12:44:17.692Z,6.17
2023-04-06T12:46:45.117Z,6.47
2023-04-06T12:49:12.094Z,6.00
2023-04-06T12:51:38.945Z,7.60
2023-04-06T12:54:05.690Z,5.77
2023-04-06T12:56:32.512Z,8.80
2023-04-06T12:58:59.294Z,5.90
2023-04-06T13:01:27.625Z,5.20
2023-04-06T13:03:54.432Z,5.13
2023-04-06T13:06:21.412Z,7.27
2023-04-06T13:08:50.996Z,6.00
2023-04-06T13:11:18.252Z,5.70
2023-04-06T13:13:45.020Z,6.00
2023-04-06T13:16:11.795Z,6.63
2023-04-06T13:18:39.877Z,5.33
2023-04-06T13:21:07.889Z,5.83
2023-04-06T13:23:36.378Z,8.27
2023-04-06T13:26:05.860Z,6.37
2023-04-06T13:28:34.141Z,6.60
2023-04-06T13:31:02.402Z,5.47
2023-04-06T13:33:30.506Z,5.50
2023-04-06T13:35:57.720Z,5.70
2023-04-06T13:38:27.238Z,6.40
2023-04-06T13:40:53.946Z,5.90
2023-04-06T13:43:21.489Z,5.33
2023-04-06T13:45:52.878Z,7.27
2023-04-06T13:48:19.891Z,6.00
2023-04-06T13:50:46.892Z,5.60
2023-04-06T13:53:14.045Z,5.37
2023-04-06T13:55:41.024Z,7.33
2023-04-06T13:58:07.668Z,5.23
2023-04-06T14:00:34.438Z,11.60
2023-04-06T14:03:01.657Z,5.77
2023-04-06T14:05:32.984Z,5.80
2023-04-06T14:07:59.601Z,6.33
2023-04-06T14:10:28.500Z,6.23
2023-04-06T14:12:55.560Z,5.03
2023-04-06T14:15:22.985Z,6.07
2023-04-06T14:17:50.247Z,5.03
2023-04-06T14:20:17.079Z,5.47
2023-04-06T14:22:44.170Z,5.60
2023-04-06T14:25:13.676Z,5.87
2023-04-06T14:27:40.499Z,5.07
2023-04-06T14:30:07.892Z,5.30
2023-04-06T14:32:34.594Z,5.60
2023-04-06T14:35:01.451Z,4.83
2023-04-06T14:37:28.243Z,6.33
2023-04-06T14:39:54.905Z,5.77
2023-04-06T14:42:21.675Z,5.00
2023-04-06T14:44:49.851Z,4.90
2023-04-06T14:47:21.435Z,7.00
2023-04-06T14:49:51.450Z,6.50
2023-04-06T14:52:18.230Z,5.83
2023-04-06T14:54:44.881Z,6.27
2023-04-06T14:57:11.471Z,5.40
2023-04-06T14:59:40.116Z,5.27
2023-04-06T15:02:07.489Z,6.10
2023-04-06T15:04:37.582Z,7.80
2023-04-06T15:07:04.497Z,7.80
2023-04-06T15:09:31.485Z,9.10
2023-04-06T15:11:58.294Z,10.03
2023-04-06T15:14:25.070Z,6.53
2023-04-06T15:16:51.773Z,6.07
2023-04-06T15:19:18.460Z,6.50
2023-04-06T15:21:45.127Z,6.63
2023-04-06T15:24:11.821Z,6.53
2023-04-06T15:26:38.521Z,6.17
2023-04-06T15:29:05.307Z,6.33
2023-04-06T15:31:37.507Z,7.47
2023-04-06T15:34:11.360Z,8.70
2023-04-06T15:36:38.035Z,6.40
2023-04-06T15:39:07.155Z,8.17
2023-04-06T15:41:33.776Z,7.97
2023-04-06T15:44:00.475Z,7.33
2023-04-06T15:46:29.946Z,7.30
2023-04-06T15:48:56.777Z,9.73
2023-04-06T15:51:24.385Z,7.20
2023-04-06T15:53:51.196Z,6.90
2023-04-06T15:56:18.023Z,6.63
2023-04-06T15:58:44.897Z,7.43
2023-04-06T16:01:13.773Z,6.07
2023-04-06T16:03:40.864Z,5.73
2023-04-06T16:06:08.936Z,5.17
2023-04-06T16:08:36.776Z,4.93
2023-04-06T16:11:03.875Z,4.23
2023-04-06T16:13:30.851Z,6.27
2023-04-06T16:15:57.581Z,5.17
2023-04-06T16:18:24.719Z,5.50
2023-04-06T16:20:51.558Z,6.03
2023-04-06T16:23:18.261Z,5.03
2023-04-06T16:25:44.981Z,5.20
2023-04-06T16:28:11.752Z,5.03
2023-04-06T16:30:40.486Z,4.23
2023-04-06T16:33:09.969Z,3.93
2023-04-06T16:35:36.788Z,4.50
2023-04-06T16:38:03.420Z,6.47
2023-04-06T16:40:30.034Z,5.33
2023-04-06T16:42:56.732Z,6.57
2023-04-06T16:45:23.449Z,4.83
2023-04-06T16:47:50.795Z,5.30
2023-04-06T16:50:17.713Z,6.10
2023-04-06T16:52:44.604Z,5.30
2023-04-06T16:55:11.928Z,5.50
2023-04-06T16:57:38.825Z,5.00
2023-04-06T17:00:09.105Z,7.53
2023-04-06T17:02:36.928Z,4.93
2023-04-06T17:05:04.191Z,4.27
2023-04-06T17:07:35.617Z,4.27
2023-04-06T17:10:03.686Z,4.30
2023-04-06T17:12:30.572Z,6.40
2023-04-06T17:14:57.342Z,4.10
2023-04-06T17:17:24.091Z,4.27
2023-04-06T17:19:51.156Z,5.43
2023-04-06T17:22:20.799Z,7.13
2023-04-06T17:24:48.666Z,5.40
2023-04-06T17:27:16.273Z,13.10
2023-04-06T17:29:43.012Z,6.57
2023-04-06T17:32:11.652Z,7.10
2023-04-06T17:34:38.312Z,16.90
2023-04-06T17:37:04.995Z,11.00
2023-04-06T17:39:31.699Z,5.33
2023-04-06T17:41:59.838Z,6.07
2023-04-06T17:44:26.565Z,4.63
2023-04-06T17:46:53.224Z,4.37
2023-04-06T17:49:19.875Z,4.20
2023-04-06T17:51:46.912Z,4.77
2023-04-06T17:54:13.609Z,6.10
2023-04-06T17:56:40.609Z,6.53
2023-04-06T17:59:10.005Z,17.73
2023-04-06T18:01:39.209Z,10.83
2023-04-06T18:04:06.100Z,5.63
2023-04-06T18:06:33.318Z,5.00
2023-04-06T18:09:00.681Z,4.50
2023-04-06T18:11:29.356Z,16.00
2023-04-06T18:13:56.228Z,13.43
2023-04-06T18:16:23.389Z,8.40
2023-04-06T18:18:50.386Z,10.80
2023-04-06T18:21:17.038Z,12.60
2023-04-06T18:23:43.841Z,7.20
2023-04-06T18:26:18.580Z,3.93
2023-04-06T18:28:45.881Z,9.23
2023-04-06T18:31:12.690Z,15.37
2023-04-06T18:33:39.427Z,6.67
2023-04-06T18:36:06.602Z,8.90
2023-04-06T18:38:33.340Z,9.43
2023-04-06T18:41:00.125Z,4.27
2023-04-06T18:43:26.855Z,4.70
2023-04-06T18:45:53.552Z,13.57
2023-04-06T18:48:20.464Z,7.23
2023-04-06T18:50:54.629Z,6.80
2023-04-06T18:53:21.401Z,10.90
2023-04-06T18:55:48.165Z,8.53
2023-04-06T18:58:14.832Z,14.60
2023-04-06T19:00:42.003Z,11.10
2023-04-06T19:03:09.206Z,15.43
2023-04-06T19:05:36.605Z,10.93
2023-04-06T19:08:03.282Z,28.07
2023-04-06T19:10:29.972Z,24.20
2023-04-06T19:12:57.850Z,18.37
2023-04-06T19:15:24.613Z,13.70
2023-04-06T19:17:51.519Z,20.00
2023-04-06T19:20:18.381Z,21.30
2023-04-06T19:22:45.045Z,29.20
2023-04-06T19:25:12.620Z,20.93
2023-04-06T19:27:39.444Z,14.33
2023-04-06T19:30:07.002Z,12.10
2023-04-06T19:32:33.839Z,17.87
2023-04-06T19:35:02.768Z,17.33
2023-04-06T19:37:29.454Z,12.07
2023-04-06T19:39:56.144Z,12.13
2023-04-06T19:42:24.187Z,11.93
2023-04-06T19:44:50.849Z,9.27
2023-04-06T19:47:17.949Z,6.43
2023-04-06T19:49:44.768Z,7.77
2023-04-06T19:52:11.803Z,12.03
2023-04-06T19:54:39.722Z,5.23
2023-04-06T19:57:06.810Z,12.30
2023-04-06T19:59:34.509Z,10.73
2023-04-06T20:02:01.326Z,9.33
2023-04-06T20:04:28.195Z,10.73
2023-04-06T20:06:54.953Z,5.93
2023-04-06T20:09:22.231Z,9.70
2023-04-06T20:11:48.969Z,18.63
2023-04-06T20:14:15.912Z,25.33
2023-04-06T20:16:42.757Z,28.17
2023-04-06T20:19:09.490Z,36.17
2023-04-06T20:21:37.419Z,20.77
2023-04-06T20:24:05.782Z,35.27
2023-04-06T20:26:32.532Z,17.83
2023-04-06T20:28:59.170Z,29.73
2023-04-06T20:31:27.352Z,12.70
2023-04-06T20:33:54.485Z,17.23
2023-04-06T20:36:22.319Z,17.27
2023-04-06T20:38:49.217Z,44.07
2023-04-06T20:41:16.522Z,21.50
2023-04-06T20:43:43.350Z,17.37
2023-04-06T20:46:15.783Z,25.97
2023-04-06T20:48:42.540Z,19.93
2023-04-06T20:51:17.461Z,14.60
2023-04-06T20:53:44.171Z,16.67
2023-04-06T20:56:11.152Z,12.63
2023-04-06T20:58:37.860Z,16.17
2023-04-06T21:01:04.633Z,23.70
2023-04-06T21:03:31.440Z,22.67
2023-04-06T21:05:58.925Z,24.70
2023-04-06T21:08:25.894Z,23.27
2023-04-06T21:10:52.555Z,21.67
2023-04-06T21:13:19.283Z,19.50
2023-04-06T21:15:46.023Z,34.83
2023-04-06T21:18:12.786Z,17.83
2023-04-06T21:20:40.000Z,8.23
2023-04-06T21:23:06.724Z,21.80
2023-04-06T21:25:36.123Z,13.83
2023-04-06T21:28:02.884Z,10.80
2023-04-06T21:30:29.565Z,17.63
2023-04-06T21:32:56.431Z,9.47
2023-04-06T21:35:23.132Z,22.30
2023-04-06T21:37:49.818Z,52.90
2023-04-06T21:40:18.712Z,67.90
2023-04-06T21:42:45.852Z,20.23
2023-04-06T21:45:13.208Z,20.50
2023-04-06T21:47:40.119Z,43.90
2023-04-06T21:50:07.426Z,90.07
2023-04-06T21:52:34.348Z,31.00
2023-04-06T21:55:01.132Z,19.53
2023-04-06T21:57:28.384Z,14.23
2023-04-06T21:59:55.160Z,17.13
2023-04-06T22:02:22.315Z,18.27
2023-04-06T22:04:49.565Z,13.30
2023-04-06T22:07:16.553Z,15.07
2023-04-06T22:09:50.028Z,16.03
2023-04-06T22:12:18.222Z,11.20
2023-04-06T22:14:47.194Z,13.30
2023-04-06T22:17:13.926Z,10.17
2023-04-06T22:19:40.825Z,10.73
2023-04-06T22:22:07.568Z,9.40
2023-04-06T22:24:34.296Z,10.57
2023-04-06T22:27:01.663Z,8.23
2023-04-06T22:29:28.342Z,12.07
2023-04-06T22:31:56.367Z,12.20
2023-04-06T22:34:23.321Z,11.60
2023-04-06T22:36:49.934Z,10.03
2023-04-06T22:39:16.721Z,8.30
2023-04-06T22:41:43.670Z,9.80
2023-04-06T22:44:10.306Z,7.70
2023-04-06T22:46:36.943Z,11.77
2023-04-06T22:49:04.322Z,6.10
2023-04-06T22:51:32.772Z,10.77
2023-04-06T22:53:59.395Z,12.53
2023-04-06T22:56:26.140Z,8.23
2023-04-06T22:58:52.850Z,7.13
2023-04-06T23:01:19.576Z,6.43
2023-04-06T23:03:46.385Z,7.03
2023-04-06T23:06:13.092Z,6.53
2023-04-06T23:08:39.740Z,7.70
2023-04-06T23:11:06.543Z,5.13
2023-04-06T23:13:33.309Z,7.50
2023-04-06T23:16:00.128Z,7.60
2023-04-06T23:18:27.278Z,5.27
2023-04-06T23:20:53.907Z,6.03
2023-04-06T23:23:20.548Z,9.87
2023-04-06T23:25:47.198Z,5.67
2023-04-06T23:28:13.858Z,6.07
2023-04-06T23:30:40.589Z,7.97
2023-04-06T23:33:07.234Z,4.57
2023-04-06T23:35:33.871Z,4.77
2023-04-06T23:38:00.454Z,5.37
2023-04-06T23:40:27.109Z,4.33
2023-04-06T23:42:53.734Z,5.63
2023-04-06T23:45:20.565Z,6.83
2023-04-06T23:47:47.284Z,6.10
2023-04-06T23:50:14.011Z,5.60
2023-04-06T23:52:40.703Z,9.30
2023-04-06T23:55:07.621Z,6.30
2023-04-06T23:57:34.207Z,5.00
